| time (UTC) | temp C | wind direction | speed KPH | gust KPH | rain 1hr cm | rain 24hr cm | rain mn cm | humidity % | barometer mb |
| 20260507083327 | 23 | 4.8 | 0.0 | 0.00 | 0.00 | 0.00 | 47 | 1014.0 | |
| 20260507081826 | 21 | 100 | 8.0 | 0.0 | 0.00 | 0.00 | 0.00 | 53 | 1014.0 |
| 20260507080327 | 21 | 100 | 8.0 | 0.0 | 0.00 | 0.00 | 0.00 | 53 | 1014.0 |
| 20260507074827 | 22 | 110 | 11.3 | 0.0 | 0.00 | 0.00 | 0.00 | 47 | 1014.0 |
| 20260507073326 | 22 | 110 | 11.3 | 0.0 | 0.00 | 0.00 | 0.00 | 47 | 1014.0 |
| 20260507071826 | 20 | 4.8 | 0.0 | 0.00 | 0.00 | 0.00 | 56 | 1015.0 | |
| 20260507070326 | 20 | 4.8 | 0.0 | 0.00 | 0.00 | 0.00 | 56 | 1015.0 | |
| 20260507064826 | 17 | 60 | 4.8 | 0.0 | 0.00 | 0.00 | 0.00 | 60 | 1015.0 |
| 20260507063326 | 17 | 60 | 4.8 | 0.0 | 0.00 | 0.00 | 0.00 | 60 | 1015.0 |
| 20260507061836 | 16 | 80 | 8.0 | 0.0 | 0.00 | 0.00 | 0.00 | 68 | 1015.0 |
| 20260507060326 | 16 | 80 | 8.0 | 0.0 | 0.00 | 0.00 | 0.00 | 68 | 1015.0 |
| 20260507054826 | 15 | 60 | 11.3 | 0.0 | 0.00 | 0.00 | 0.00 | 68 | 1015.0 |
| 20260507053333 | 15 | 60 | 11.3 | 0.0 | 0.00 | 0.00 | 0.00 | 68 | 1015.0 |
| 20260507051827 | 12 | 80 | 11.3 | 0.0 | 0.00 | 0.00 | 0.00 | 77 | 1015.0 |
| 20260507050326 | 12 | 80 | 11.3 | 0.0 | 0.00 | 0.00 | 0.00 | 77 | 1015.0 |
| 20260507044823 | 12 | 90 | 11.3 | 0.0 | 0.00 | 0.00 | 0.00 | 77 | 1014.0 |
| 20260507043326 | 12 | 90 | 11.3 | 0.0 | 0.00 | 0.00 | 0.00 | 77 | 1014.0 |
| 20260507041826 | 11 | 100 | 11.3 | 0.0 | 0.00 | 0.00 | 0.00 | 82 | 1014.0 |
| 20260507040326 | 11 | 100 | 11.3 | 0.0 | 0.00 | 0.00 | 0.00 | 82 | 1014.0 |
| 20260507034823 | 11 | 100 | 11.3 | 0.0 | 0.00 | 0.00 | 0.00 | 77 | 1014.0 |
| 20260507033325 | 11 | 100 | 11.3 | 0.0 | 0.00 | 0.00 | 0.00 | 77 | 1014.0 |
| 20260507031826 | 10 | 90 | 11.3 | 0.0 | 0.00 | 0.00 | 0.00 | 82 | 1014.0 |
| 20260507030326 | 10 | 90 | 11.3 | 0.0 | 0.00 | 0.00 | 0.00 | 82 | 1014.0 |
| 20260507024826 | 10 | 90 | 11.3 | 0.0 | 0.00 | 0.00 | 0.00 | 82 | 1014.0 |
| 20260507023326 | 10 | 90 | 11.3 | 0.0 | 0.00 | 0.00 | 0.00 | 82 | 1014.0 |
| 20260507021826 | 11 | 90 | 9.7 | 0.0 | 0.00 | 0.00 | 0.00 | 82 | 1014.0 |
| 20260507020326 | 11 | 90 | 9.7 | 0.0 | 0.00 | 0.00 | 0.00 | 82 | 1014.0 |
| 20260507014826 | 11 | 80 | 11.3 | 0.0 | 0.00 | 0.00 | 0.00 | 82 | 1014.0 |
| 20260507013325 | 11 | 80 | 11.3 | 0.0 | 0.00 | 0.00 | 0.00 | 82 | 1014.0 |
| 20260507011826 | 11 | 80 | 11.3 | 0.0 | 0.00 | 0.00 | 0.00 | 82 | 1013.0 |
| 20260507010326 | 11 | 80 | 11.3 | 0.0 | 0.00 | 0.00 | 0.00 | 82 | 1013.0 |
| 20260507004826 | 12 | 90 | 11.3 | 0.0 | 0.00 | 0.00 | 0.00 | 77 | 1013.0 |
| 20260507003326 | 12 | 90 | 11.3 | 0.0 | 0.00 | 0.00 | 0.00 | 77 | 1013.0 |
| 20260507001826 | 11 | 80 | 9.7 | 0.0 | 0.00 | 0.00 | 0.00 | 88 | 1013.0 |
| 20260507000328 | 11 | 80 | 9.7 | 0.0 | 0.00 | 0.00 | 0.00 | 88 | 1013.0 |
| 20260506234826 | 12 | 3.2 | 0.0 | 0.00 | 0.00 | 0.00 | 77 | 1013.0 | |
| 20260506233326 | 12 | 3.2 | 0.0 | 0.00 | 0.00 | 0.00 | 77 | 1013.0 | |
| 20260506231827 | 12 | 1.6 | 0.0 | 0.00 | 0.00 | 0.00 | 72 | 1013.0 | |
| 20260506230326 | 12 | 1.6 | 0.0 | 0.00 | 0.00 | 0.00 | 72 | 1013.0 | |
| 20260506224822 | 13 | 3.2 | 0.0 | 0.00 | 0.00 | 0.00 | 67 | 1013.0 | |
| 20260506223326 | 13 | 3.2 | 0.0 | 0.00 | 0.00 | 0.00 | 67 | 1013.0 | |
| 20260506221826 | 13 | 1.6 | 0.0 | 0.00 | 0.00 | 0.00 | 67 | 1013.0 | |
| 20260506220325 | 13 | 1.6 | 0.0 | 0.00 | 0.00 | 0.00 | 67 | 1013.0 | |
| 20260506214842 | 16 | 280 | 3.2 | 0.0 | 0.00 | 0.00 | 0.00 | 59 | 1013.0 |
| 20260506213326 | 16 | 280 | 3.2 | 0.0 | 0.00 | 0.00 | 0.00 | 59 | 1013.0 |
| 20260506211823 | 16 | 0 | 0.0 | 0.0 | 0.00 | 0.00 | 0.00 | 59 | 1013.0 |
| 20260506210326 | 16 | 0 | 0.0 | 0.0 | 0.00 | 0.00 | 0.00 | 59 | 1013.0 |
| 20260506204827 | 17 | 290 | 4.8 | 0.0 | 0.00 | 0.00 | 0.00 | 52 | 1012.0 |
| 20260506203326 | 17 | 290 | 4.8 | 0.0 | 0.00 | 0.00 | 0.00 | 52 | 1012.0 |
| 20260506201823 | 18 | 290 | 11.3 | 0.0 | 0.00 | 0.00 | 0.00 | 49 | 1012.0 |
| 20260506200326 | 18 | 290 | 11.3 | 0.0 | 0.00 | 0.00 | 0.00 | 49 | 1012.0 |
| 20260506194845 | 21 | 140 | 4.8 | 0.0 | 0.00 | 0.00 | 0.00 | 38 | 1012.0 |
| 20260506193350 | 21 | 140 | 4.8 | 0.0 | 0.00 | 0.00 | 0.00 | 38 | 1012.0 |
| 20260506191827 | 21 | 210 | 11.3 | 0.0 | 0.00 | 0.00 | 0.00 | 40 | 1011.0 |
| 20260506190326 | 21 | 210 | 11.3 | 0.0 | 0.00 | 0.00 | 0.00 | 40 | 1011.0 |
| 20260506184831 | 22 | 170 | 16.1 | 0.0 | 0.00 | 0.00 | 0.00 | 36 | 1011.0 |
| 20260506183326 | 22 | 170 | 16.1 | 0.0 | 0.00 | 0.00 | 0.00 | 36 | 1011.0 |
| 20260506181826 | 22 | 240 | 14.5 | 0.0 | 0.00 | 0.00 | 0.00 | 41 | 1011.0 |
| 20260506180327 | 22 | 240 | 14.5 | 0.0 | 0.00 | 0.00 | 0.00 | 41 | 1011.0 |
| 20260506174826 | 22 | 210 | 11.3 | 0.0 | 0.00 | 0.00 | 0.00 | 41 | 1011.0 |
| 20260506173326 | 22 | 210 | 11.3 | 0.0 | 0.00 | 0.00 | 0.00 | 41 | 1011.0 |
| 20260506171826 | 23 | 260 | 4.8 | 0.0 | 0.00 | 0.00 | 0.00 | 34 | 1010.0 |
| 20260506170326 | 23 | 260 | 4.8 | 0.0 | 0.00 | 0.00 | 0.00 | 34 | 1010.0 |
| 20260506164826 | 25 | 260 | 11.3 | 0.0 | 0.00 | 0.00 | 0.00 | 30 | 1010.0 |
| 20260506163326 | 25 | 260 | 11.3 | 0.0 | 0.00 | 0.00 | 0.00 | 30 | 1010.0 |
| 20260506161826 | 27 | 250 | 9.7 | 0.0 | 0.00 | 0.00 | 0.00 | 24 | 1010.0 |
| 20260506160326 | 27 | 250 | 9.7 | 0.0 | 0.00 | 0.00 | 0.00 | 24 | 1010.0 |
| 20260506154827 | 27 | 240 | 9.7 | 0.0 | 0.00 | 0.00 | 0.00 | 26 | 1010.0 |
| 20260506153326 | 27 | 240 | 9.7 | 0.0 | 0.00 | 0.00 | 0.00 | 26 | 1010.0 |
| 20260506151826 | 27 | 250 | 9.7 | 0.0 | 0.00 | 0.00 | 0.00 | 23 | 1011.0 |
| 20260506150332 | 27 | 250 | 9.7 | 0.0 | 0.00 | 0.00 | 0.00 | 23 | 1011.0 |
| 20260506144826 | 27 | 260 | 9.7 | 0.0 | 0.00 | 0.00 | 0.00 | 25 | 1011.0 |
| 20260506143338 | 27 | 260 | 9.7 | 0.0 | 0.00 | 0.00 | 0.00 | 25 | 1011.0 |
| 20260506141826 | 27 | 4.8 | 0.0 | 0.00 | 0.00 | 0.00 | 25 | 1011.0 | |
| 20260506140443 | 27 | 4.8 | 0.0 | 0.00 | 0.00 | 0.00 | 25 | 1011.0 | |
| 20260506134851 | 27 | 9.7 | 0.0 | 0.00 | 0.00 | 0.00 | 23 | 1011.0 | |
| 20260506133326 | 27 | 9.7 | 0.0 | 0.00 | 0.00 | 0.00 | 23 | 1011.0 | |
| 20260506131826 | 27 | 330 | 8.0 | 0.0 | 0.00 | 0.00 | 0.00 | 24 | 1011.0 |
| 20260506130335 | 27 | 330 | 8.0 | 0.0 | 0.00 | 0.00 | 0.00 | 24 | 1011.0 |
| 20260506124827 | 27 | 8.0 | 0.0 | 0.00 | 0.00 | 0.00 | 26 | 1012.0 | |
| 20260506123326 | 27 | 8.0 | 0.0 | 0.00 | 0.00 | 0.00 | 26 | 1012.0 | |
| 20260506121826 | 27 | 120 | 9.7 | 0.0 | 0.00 | 0.00 | 0.00 | 26 | 1012.0 |
| 20260506120326 | 27 | 120 | 9.7 | 0.0 | 0.00 | 0.00 | 0.00 | 26 | 1012.0 |
| 20260506114826 | 27 | 110 | 9.7 | 0.0 | 0.00 | 0.00 | 0.00 | 26 | 1012.0 |
| 20260506113326 | 27 | 110 | 9.7 | 0.0 | 0.00 | 0.00 | 0.00 | 26 | 1012.0 |
| 20260506111826 | 26 | 120 | 9.7 | 0.0 | 0.00 | 0.00 | 0.00 | 30 | 1013.0 |
| 20260506110326 | 26 | 120 | 9.7 | 0.0 | 0.00 | 0.00 | 0.00 | 30 | 1013.0 |
| 20260506104826 | 26 | 180 | 9.7 | 0.0 | 0.00 | 0.00 | 0.00 | 28 | 1013.0 |
| 20260506103326 | 26 | 180 | 9.7 | 0.0 | 0.00 | 0.00 | 0.00 | 28 | 1013.0 |
| 20260506101826 | 25 | 170 | 8.0 | 0.0 | 0.00 | 0.00 | 0.00 | 30 | 1013.0 |
| 20260506100326 | 25 | 170 | 8.0 | 0.0 | 0.00 | 0.00 | 0.00 | 30 | 1013.0 |
| 20260506094826 | 25 | 4.8 | 0.0 | 0.00 | 0.00 | 0.00 | 34 | 1014.0 | |
| 20260506093326 | 25 | 4.8 | 0.0 | 0.00 | 0.00 | 0.00 | 34 | 1014.0 | |
| 20260506091826 | 22 | 90 | 8.0 | 0.0 | 0.00 | 0.00 | 0.00 | 38 | 1014.0 |
| 20260506090326 | 22 | 90 | 8.0 | 0.0 | 0.00 | 0.00 | 0.00 | 38 | 1014.0 |
| 20260506084826 | 22 | 8.0 | 0.0 | 0.00 | 0.00 | 0.00 | 41 | 1014.0 |